sensor_id;sensor_type;location;lat;lon;timestamp;pressure;altitude;pressure_sealevel;temperature;humidity
76352;BME280;65179;47.786;19.138;2024-03-02T00:02:21;99761.59;;;8.57;100.00
76352;BME280;65179;47.786;19.138;2024-03-02T00:04:47;99761.84;;;8.55;100.00
76352;BME280;65179;47.786;19.138;2024-03-02T00:07:14;99756.03;;;8.52;100.00
76352;BME280;65179;47.786;19.138;2024-03-02T00:09:40;99754.59;;;8.49;100.00
76352;BME280;65179;47.786;19.138;2024-03-02T00:12:05;99753.78;;;8.49;100.00
76352;BME280;65179;47.786;19.138;2024-03-02T00:14:31;99745.88;;;8.47;100.00
76352;BME280;65179;47.786;19.138;2024-03-02T00:16:57;99755.88;;;8.47;100.00
76352;BME280;65179;47.786;19.138;2024-03-02T00:19:22;99758.53;;;8.28;100.00
76352;BME280;65179;47.786;19.138;2024-03-02T00:21:48;99763.53;;;8.25;100.00
76352;BME280;65179;47.786;19.138;2024-03-02T00:24:34;99767.09;;;8.19;100.00
76352;BME280;65179;47.786;19.138;2024-03-02T00:27:01;99779.13;;;8.23;100.00
76352;BME280;65179;47.786;19.138;2024-03-02T00:29:29;99766.06;;;8.20;100.00
76352;BME280;65179;47.786;19.138;2024-03-02T00:31:55;99766.47;;;8.17;100.00
76352;BME280;65179;47.786;19.138;2024-03-02T00:34:21;99760.47;;;8.15;100.00
76352;BME280;65179;47.786;19.138;2024-03-02T00:36:47;99751.13;;;8.11;100.00
76352;BME280;65179;47.786;19.138;2024-03-02T00:39:15;99755.72;;;8.10;100.00
76352;BME280;65179;47.786;19.138;2024-03-02T00:41:42;99755.09;;;8.08;100.00
76352;BME280;65179;47.786;19.138;2024-03-02T00:44:09;99756.97;;;8.08;100.00
76352;BME280;65179;47.786;19.138;2024-03-02T00:46:40;99762.88;;;7.98;100.00
76352;BME280;65179;47.786;19.138;2024-03-02T00:51:37;99758.31;;;7.99;100.00
76352;BME280;65179;47.786;19.138;2024-03-02T00:54:07;99764.56;;;7.93;100.00
76352;BME280;65179;47.786;19.138;2024-03-02T00:56:34;99759.16;;;7.93;100.00
76352;BME280;65179;47.786;19.138;2024-03-02T00:59:00;99756.69;;;7.91;100.00
76352;BME280;65179;47.786;19.138;2024-03-02T01:01:26;99757.94;;;7.89;100.00
76352;BME280;65179;47.786;19.138;2024-03-02T01:03:52;99756.72;;;7.85;100.00
76352;BME280;65179;47.786;19.138;2024-03-02T01:06:18;99749.69;;;7.84;100.00
76352;BME280;65179;47.786;19.138;2024-03-02T01:08:44;99756.53;;;7.80;100.00
76352;BME280;65179;47.786;19.138;2024-03-02T01:11:09;99749.69;;;7.84;100.00
76352;BME280;65179;47.786;19.138;2024-03-02T01:13:35;99757.59;;;7.79;100.00
76352;BME280;65179;47.786;19.138;2024-03-02T01:16:01;99759.25;;;7.80;100.00
76352;BME280;65179;47.786;19.138;2024-03-02T01:18:27;99759.69;;;7.77;100.00
76352;BME280;65179;47.786;19.138;2024-03-02T01:20:52;99753.84;;;7.80;100.00
76352;BME280;65179;47.786;19.138;2024-03-02T01:23:23;99752.19;;;7.79;100.00
76352;BME280;65179;47.786;19.138;2024-03-02T01:25:52;99755.94;;;7.78;100.00
76352;BME280;65179;47.786;19.138;2024-03-02T01:28:18;99750.53;;;7.78;100.00
76352;BME280;65179;47.786;19.138;2024-03-02T01:30:44;99742.22;;;7.79;100.00
76352;BME280;65179;47.786;19.138;2024-03-02T01:33:10;99745.97;;;7.78;100.00
76352;BME280;65179;47.786;19.138;2024-03-02T01:35:35;99740.56;;;7.78;100.00
76352;BME280;65179;47.786;19.138;2024-03-02T01:38:01;99735.56;;;7.82;100.00
76352;BME280;65179;47.786;19.138;2024-03-02T01:40:27;99733.06;;;7.80;100.00
76352;BME280;65179;47.786;19.138;2024-03-02T01:42:54;99727.25;;;7.77;100.00
76352;BME280;65179;47.786;19.138;2024-03-02T01:45:21;99715.84;;;7.75;100.00
76352;BME280;65179;47.786;19.138;2024-03-02T01:47:46;99718.09;;;7.78;100.00
76352;BME280;65179;47.786;19.138;2024-03-02T01:50:12;99711.47;;;7.74;100.00
76352;BME280;65179;47.786;19.138;2024-03-02T01:52:38;99702.34;;;7.75;100.00
76352;BME280;65179;47.786;19.138;2024-03-02T01:55:04;99700.62;;;7.80;100.00
76352;BME280;65179;47.786;19.138;2024-03-02T01:57:31;99702.25;;;7.88;100.00
76352;BME280;65179;47.786;19.138;2024-03-02T01:59:57;99700.47;;;8.00;100.00
76352;BME280;65179;47.786;19.138;2024-03-02T02:02:23;99698.78;;;8.05;100.00
76352;BME280;65179;47.786;19.138;2024-03-02T02:04:48;99696.16;;;8.17;100.00
76352;BME280;65179;47.786;19.138;2024-03-02T02:07:13;99697.78;;;8.24;100.00
76352;BME280;65179;47.786;19.138;2024-03-02T02:09:41;99699.84;;;8.29;100.00
76352;BME280;65179;47.786;19.138;2024-03-02T02:12:07;99697.28;;;8.34;100.00
76352;BME280;65179;47.786;19.138;2024-03-02T02:14:33;99706.16;;;8.41;100.00
76352;BME280;65179;47.786;19.138;2024-03-02T02:16:59;99715.56;;;8.38;100.00
76352;BME280;65179;47.786;19.138;2024-03-02T02:19:24;99718.87;;;8.40;100.00
76352;BME280;65179;47.786;19.138;2024-03-02T02:21:50;99717.59;;;8.43;100.00
76352;BME280;65179;47.786;19.138;2024-03-02T02:24:15;99722.19;;;8.43;100.00
76352;BME280;65179;47.786;19.138;2024-03-02T02:26:41;99724.22;;;8.47;100.00
76352;BME280;65179;47.786;19.138;2024-03-02T02:29:06;99722.12;;;8.49;100.00
76352;BME280;65179;47.786;19.138;2024-03-02T02:31:41;99726.91;;;8.47;100.00
76352;BME280;65179;47.786;19.138;2024-03-02T02:34:07;99723.00;;;8.43;100.00
76352;BME280;65179;47.786;19.138;2024-03-02T02:36:37;99729.25;;;8.44;100.00
76352;BME280;65179;47.786;19.138;2024-03-02T02:39:05;99717.16;;;8.46;100.00
76352;BME280;65179;47.786;19.138;2024-03-02T02:41:32;99717.59;;;8.43;100.00
76352;BME280;65179;47.786;19.138;2024-03-02T02:43:57;99712.19;;;8.43;100.00
76352;BME280;65179;47.786;19.138;2024-03-02T02:46:23;99712.06;;;8.38;100.00
76352;BME280;65179;47.786;19.138;2024-03-02T02:48:48;99720.16;;;8.38;100.00
76352;BME280;65179;47.786;19.138;2024-03-02T02:51:14;99721.81;;;8.39;100.00
76352;BME280;65179;47.786;19.138;2024-03-02T02:53:39;99721.19;;;8.37;100.00
76352;BME280;65179;47.786;19.138;2024-03-02T02:56:07;99718.94;;;8.34;100.00
76352;BME280;65179;47.786;19.138;2024-03-02T02:58:33;99726.25;;;8.33;100.00
76352;BME280;65179;47.786;19.138;2024-03-02T03:00:58;99726.44;;;8.32;100.00
76352;BME280;65179;47.786;19.138;2024-03-02T03:03:24;99726.44;;;8.32;100.00
76352;BME280;65179;47.786;19.138;2024-03-02T03:05:49;99726.44;;;8.32;100.00
76352;BME280;65179;47.786;19.138;2024-03-02T03:08:15;99726.44;;;8.32;100.00
76352;BME280;65179;47.786;19.138;2024-03-02T03:10:41;99725.16;;;8.34;100.00
76352;BME280;65179;47.786;19.138;2024-03-02T03:13:07;99724.94;;;8.36;100.00
76352;BME280;65179;47.786;19.138;2024-03-02T03:15:35;99723.31;;;8.35;100.00
76352;BME280;65179;47.786;19.138;2024-03-02T03:18:04;99724.94;;;8.36;100.00
76352;BME280;65179;47.786;19.138;2024-03-02T03:20:30;99733.06;;;8.36;100.00
76352;BME280;65179;47.786;19.138;2024-03-02T03:22:59;99733.06;;;8.36;100.00
76352;BME280;65179;47.786;19.138;2024-03-02T03:25:25;99736.41;;;8.38;100.00
76352;BME280;65179;47.786;19.138;2024-03-02T03:27:50;99735.09;;;8.40;100.00
76352;BME280;65179;47.786;19.138;2024-03-02T03:30:18;99733.47;;;8.39;99.63
76352;BME280;65179;47.786;19.138;2024-03-02T03:32:43;99730.53;;;8.41;100.00
76352;BME280;65179;47.786;19.138;2024-03-02T03:35:09;99737.13;;;8.45;99.73
76352;BME280;65179;47.786;19.138;2024-03-02T03:37:34;99729.44;;;8.49;99.11
76352;BME280;65179;47.786;19.138;2024-03-02T03:40:00;99724.38;;;8.52;99.01
76352;BME280;65179;47.786;19.138;2024-03-02T03:42:26;99733.09;;;8.54;99.01
76352;BME280;65179;47.786;19.138;2024-03-02T03:44:52;99730.78;;;8.58;98.59
76352;BME280;65179;47.786;19.138;2024-03-02T03:47:17;99742.44;;;8.58;98.55
76352;BME280;65179;47.786;19.138;2024-03-02T03:49:43;99739.12;;;8.56;99.18
76352;BME280;65179;47.786;19.138;2024-03-02T03:52:09;99732.69;;;8.57;98.27
76352;BME280;65179;47.786;19.138;2024-03-02T03:54:34;99729.97;;;8.57;98.69
76352;BME280;65179;47.786;19.138;2024-03-02T03:57:02;99735.38;;;8.57;98.67
76352;BME280;65179;47.786;19.138;2024-03-02T03:59:27;99726.19;;;8.58;98.19
76352;BME280;65179;47.786;19.138;2024-03-02T04:01:53;99729.97;;;8.57;98.50
76352;BME280;65179;47.786;19.138;2024-03-02T04:04:18;99733.94;;;8.55;98.35
76352;BME280;65179;47.786;19.138;2024-03-02T04:06:44;99736.88;;;8.53;97.71
76352;BME280;65179;47.786;19.138;2024-03-02T04:09:09;99736.41;;;8.56;98.08
76352;BME280;65179;47.786;19.138;2024-03-02T04:11:35;99737.84;;;8.59;97.99
76352;BME280;65179;47.786;19.138;2024-03-02T04:14:00;99743.63;;;8.62;97.90
76352;BME280;65179;47.786;19.138;2024-03-02T04:16:26;99744.25;;;8.64;97.70
76352;BME280;65179;47.786;19.138;2024-03-02T04:18:51;99752.53;;;8.69;97.17
76352;BME280;65179;47.786;19.138;2024-03-02T04:21:17;99755.59;;;8.73;96.84
76352;BME280;65179;47.786;19.138;2024-03-02T04:23:42;99761.84;;;8.73;97.18
76352;BME280;65179;47.786;19.138;2024-03-02T04:26:08;99755.22;;;8.69;97.81
76352;BME280;65179;47.786;19.138;2024-03-02T04:28:33;99761.31;;;8.65;98.24
76352;BME280;65179;47.786;19.138;2024-03-02T04:30:58;99766.97;;;8.63;98.53
76352;BME280;65179;47.786;19.138;2024-03-02T04:33:24;99765.53;;;8.61;99.21
76352;BME280;65179;47.786;19.138;2024-03-02T04:35:49;99761.97;;;8.60;98.94
76352;BME280;65179;47.786;19.138;2024-03-02T04:38:15;99766.78;;;8.58;99.77
76352;BME280;65179;47.786;19.138;2024-03-02T04:40:40;99766.19;;;8.56;99.61
76352;BME280;65179;47.786;19.138;2024-03-02T04:43:06;99767.03;;;8.57;99.66
76352;BME280;65179;47.786;19.138;2024-03-02T04:45:32;99764.53;;;8.55;99.76
76352;BME280;65179;47.786;19.138;2024-03-02T04:47:57;99770.75;;;8.56;99.90
76352;BME280;65179;47.786;19.138;2024-03-02T04:50:23;99773.69;;;8.54;100.00
76352;BME280;65179;47.786;19.138;2024-03-02T04:52:48;99782.88;;;8.53;100.00
76352;BME280;65179;47.786;19.138;2024-03-02T04:55:13;99774.13;;;8.51;100.00
76352;BME280;65179;47.786;19.138;2024-03-02T04:57:50;99772.50;;;8.50;100.00
76352;BME280;65179;47.786;19.138;2024-03-02T05:00:16;99785.66;;;8.47;100.00
76352;BME280;65179;47.786;19.138;2024-03-02T05:02:42;99776.09;;;8.44;100.00
76352;BME280;65179;47.786;19.138;2024-03-02T05:05:08;99769.25;;;8.42;100.00
76352;BME280;65179;47.786;19.138;2024-03-02T05:07:33;99781.94;;;8.41;100.00
76352;BME280;65179;47.786;19.138;2024-03-02T05:09:59;99772.19;;;8.40;100.00
76352;BME280;65179;47.786;19.138;2024-03-02T05:12:24;99778.00;;;8.37;100.00
76352;BME280;65179;47.786;19.138;2024-03-02T05:15:12;99779.69;;;8.38;100.00
76352;BME280;65179;47.786;19.138;2024-03-02T05:17:39;99779.69;;;8.38;100.00
76352;BME280;65179;47.786;19.138;2024-03-02T05:20:06;99774.09;;;8.33;100.00
76352;BME280;65179;47.786;19.138;2024-03-02T05:22:33;99790.09;;;8.34;100.00
76352;BME280;65179;47.786;19.138;2024-03-02T05:24:59;99784.91;;;8.33;100.00
76352;BME280;65179;47.786;19.138;2024-03-02T05:27:26;99787.63;;;8.33;100.00
76352;BME280;65179;47.786;19.138;2024-03-02T05:29:51;99792.19;;;8.32;100.00
76352;BME280;65179;47.786;19.138;2024-03-02T05:32:17;99790.34;;;8.33;100.00
76352;BME280;65179;47.786;19.138;2024-03-02T05:34:42;99795.75;;;8.33;100.00
76352;BME280;65179;47.786;19.138;2024-03-02T05:37:08;99793.63;;;8.35;100.00
76352;BME280;65179;47.786;19.138;2024-03-02T05:39:33;99793.03;;;8.33;100.00
76352;BME280;65179;47.786;19.138;2024-03-02T05:41:59;99790.94;;;8.35;100.00
76352;BME280;65179;47.786;19.138;2024-03-02T05:44:24;99790.94;;;8.35;100.00
76352;BME280;65179;47.786;19.138;2024-03-02T05:46:50;99791.78;;;8.35;100.00
76352;BME280;65179;47.786;19.138;2024-03-02T05:49:15;99801.75;;;8.35;100.00
76352;BME280;65179;47.786;19.138;2024-03-02T05:51:41;99790.94;;;8.35;100.00
76352;BME280;65179;47.786;19.138;2024-03-02T05:54:07;99795.75;;;8.33;100.00
76352;BME280;65179;47.786;19.138;2024-03-02T05:56:32;99787.16;;;8.36;100.00
76352;BME280;65179;47.786;19.138;2024-03-02T05:58:58;99796.13;;;8.36;100.00
76352;BME280;65179;47.786;19.138;2024-03-02T06:01:39;99788.47;;;8.33;100.00
76352;BME280;65179;47.786;19.138;2024-03-02T06:04:05;99797.22;;;8.29;100.00
76352;BME280;65179;47.786;19.138;2024-03-02T06:06:31;99793.91;;;8.27;100.00
76352;BME280;65179;47.786;19.138;2024-03-02T06:09:02;99809.50;;;8.25;100.00
76352;BME280;65179;47.786;19.138;2024-03-02T06:11:35;99808.06;;;8.22;100.00
76352;BME280;65179;47.786;19.138;2024-03-02T06:14:01;99822.19;;;8.24;100.00
76352;BME280;65179;47.786;19.138;2024-03-02T06:16:27;99816.59;;;8.26;100.00
76352;BME280;65179;47.786;19.138;2024-03-02T06:18:52;99819.06;;;8.27;100.00
76352;BME280;65179;47.786;19.138;2024-03-02T06:21:19;99824.28;;;8.29;100.00
76352;BME280;65179;47.786;19.138;2024-03-02T06:23:45;99830.31;;;8.31;100.00
76352;BME280;65179;47.786;19.138;2024-03-02T06:26:11;99821.13;;;8.32;100.00
76352;BME280;65179;47.786;19.138;2024-03-02T06:28:37;99831.50;;;8.35;100.00
76352;BME280;65179;47.786;19.138;2024-03-02T06:31:03;99826.72;;;8.37;100.00
76352;BME280;65179;47.786;19.138;2024-03-02T06:33:29;99828.38;;;8.38;100.00
76352;BME280;65179;47.786;19.138;2024-03-02T06:35:54;99833.34;;;8.41;100.00
76352;BME280;65179;47.786;19.138;2024-03-02T06:38:19;99835.44;;;8.39;100.00
76352;BME280;65179;47.786;19.138;2024-03-02T06:40:45;99836.03;;;8.41;100.00
76352;BME280;65179;47.786;19.138;2024-03-02T06:43:10;99842.06;;;8.43;100.00
76352;BME280;65179;47.786;19.138;2024-03-02T06:45:36;99838.31;;;8.44;100.00
76352;BME280;65179;47.786;19.138;2024-03-02T06:48:01;99835.81;;;8.43;100.00
76352;BME280;65179;47.786;19.138;2024-03-02T06:50:27;99836.66;;;8.43;100.00
76352;BME280;65179;47.786;19.138;2024-03-02T06:52:52;99827.50;;;8.44;100.00
76352;BME280;65179;47.786;19.138;2024-03-02T06:55:18;99833.34;;;8.41;100.00
76352;BME280;65179;47.786;19.138;2024-03-02T06:57:43;99843.50;;;8.46;100.00
76352;BME280;65179;47.786;19.138;2024-03-02T07:00:09;99838.31;;;8.44;100.00
76352;BME280;65179;47.786;19.138;2024-03-02T07:02:35;99840.19;;;8.44;100.00
76352;BME280;65179;47.786;19.138;2024-03-02T07:05:02;99843.50;;;8.46;100.00
76352;BME280;65179;47.786;19.138;2024-03-02T07:07:28;99842.47;;;8.47;100.00
76352;BME280;65179;47.786;19.138;2024-03-02T07:09:53;99833.28;;;8.48;100.00
76352;BME280;65179;47.786;19.138;2024-03-02T07:12:19;99834.50;;;8.52;100.00
76352;BME280;65179;47.786;19.138;2024-03-02T07:14:44;99838.03;;;8.52;100.00
76352;BME280;65179;47.786;19.138;2024-03-02T07:17:30;99839.50;;;8.55;100.00
76352;BME280;65179;47.786;19.138;2024-03-02T07:19:56;99843.63;;;8.57;100.00
76352;BME280;65179;47.786;19.138;2024-03-02T07:22:22;99849.84;;;8.58;100.00
76352;BME280;65179;47.786;19.138;2024-03-02T07:24:48;99839.88;;;8.58;100.00
76352;BME280;65179;47.786;19.138;2024-03-02T07:27:15;99844.62;;;8.63;100.00
76352;BME280;65179;47.786;19.138;2024-03-02T07:29:41;99846.06;;;8.65;100.00
76352;BME280;65179;47.786;19.138;2024-03-02T07:32:07;99849.97;;;8.69;100.00
76352;BME280;65179;47.786;19.138;2024-03-02T07:34:33;99842.47;;;8.71;100.00
76352;BME280;65179;47.786;19.138;2024-03-02T07:36:59;99848.47;;;8.73;100.00
76352;BME280;65179;47.786;19.138;2024-03-02T07:39:24;99849.09;;;8.75;100.00
76352;BME280;65179;47.786;19.138;2024-03-02T07:41:50;99850.28;;;8.79;100.00
76352;BME280;65179;47.786;19.138;2024-03-02T07:44:16;99856.34;;;8.81;100.00
76352;BME280;65179;47.786;19.138;2024-03-02T07:46:44;99854.25;;;8.83;100.00
76352;BME280;65179;47.786;19.138;2024-03-02T07:49:11;99863.78;;;8.86;100.00
76352;BME280;65179;47.786;19.138;2024-03-02T07:51:38;99857.94;;;8.89;100.00
76352;BME280;65179;47.786;19.138;2024-03-02T07:54:04;99860.41;;;8.90;100.00
76352;BME280;65179;47.786;19.138;2024-03-02T07:56:29;99866.66;;;8.91;100.00
76352;BME280;65179;47.786;19.138;2024-03-02T07:58:55;99859.53;;;8.96;100.00
76352;BME280;65179;47.786;19.138;2024-03-02T08:01:22;99856.37;;;8.99;100.00
76352;BME280;65179;47.786;19.138;2024-03-02T08:03:48;99871.94;;;9.04;100.00
76352;BME280;65179;47.786;19.138;2024-03-02T08:06:17;99865.69;;;9.03;100.00
76352;BME280;65179;47.786;19.138;2024-03-02T08:08:45;99864.25;;;9.01;100.00
76352;BME280;65179;47.786;19.138;2024-03-02T08:11:11;99873.03;;;9.03;100.00
76352;BME280;65179;47.786;19.138;2024-03-02T08:13:36;99868.03;;;9.00;100.00
76352;BME280;65179;47.786;19.138;2024-03-02T08:16:02;99865.75;;;8.97;100.00
76352;BME280;65179;47.786;19.138;2024-03-02T08:18:28;99871.59;;;9.00;100.00
76352;BME280;65179;47.786;19.138;2024-03-02T08:20:54;99872.37;;;9.01;100.00
76352;BME280;65179;47.786;19.138;2024-03-02T08:23:21;99876.75;;;9.02;100.00
76352;BME280;65179;47.786;19.138;2024-03-02T08:25:46;99868.41;;;9.03;100.00
76352;BME280;65179;47.786;19.138;2024-03-02T08:28:12;99879.25;;;9.03;100.00
76352;BME280;65179;47.786;19.138;2024-03-02T08:30:37;99869.25;;;9.04;100.00
76352;BME280;65179;47.786;19.138;2024-03-02T08:33:03;99876.34;;;9.05;100.00
76352;BME280;65179;47.786;19.138;2024-03-02T08:35:29;99876.53;;;9.03;100.00
76352;BME280;65179;47.786;19.138;2024-03-02T08:37:54;99883.91;;;8.96;100.00
76352;BME280;65179;47.786;19.138;2024-03-02T08:40:20;99879.09;;;8.98;100.00
76352;BME280;65179;47.786;19.138;2024-03-02T08:42:45;99881.81;;;8.98;100.00
76352;BME280;65179;47.786;19.138;2024-03-02T08:45:12;99879.53;;;8.95;100.00
76352;BME280;65179;47.786;19.138;2024-03-02T08:47:38;99882.84;;;8.97;100.00
76352;BME280;65179;47.786;19.138;2024-03-02T08:50:04;99885.56;;;8.97;100.00
76352;BME280;65179;47.786;19.138;2024-03-02T08:52:30;99883.44;;;8.99;100.00
76352;BME280;65179;47.786;19.138;2024-03-02T08:54:55;99882.00;;;8.97;100.00
76352;BME280;65179;47.786;19.138;2024-03-02T08:57:21;99887.66;;;8.95;100.00
76352;BME280;65179;47.786;19.138;2024-03-02T08:59:46;99883.91;;;8.96;100.00
76352;BME280;65179;47.786;19.138;2024-03-02T09:02:12;99888.25;;;8.97;100.00
76352;BME280;65179;47.786;19.138;2024-03-02T09:04:37;99883.28;;;8.94;100.00
76352;BME280;65179;47.786;19.138;2024-03-02T09:07:03;99883.50;;;8.93;100.00
76352;BME280;65179;47.786;19.138;2024-03-02T09:09:32;99887.72;;;8.89;100.00
76352;BME280;65179;47.786;19.138;2024-03-02T09:11:57;99887.94;;;8.87;100.00
76352;BME280;65179;47.786;19.138;2024-03-02T09:14:23;99883.38;;;8.88;100.00
76352;BME280;65179;47.786;19.138;2024-03-02T09:16:49;99891.25;;;8.89;100.00
76352;BME280;65179;47.786;19.138;2024-03-02T09:19:14;99889.59;;;8.88;100.00
76352;BME280;65179;47.786;19.138;2024-03-02T09:21:39;99884.78;;;8.90;100.00
76352;BME280;65179;47.786;19.138;2024-03-02T09:24:06;99882.06;;;8.90;100.00
76352;BME280;65179;47.786;19.138;2024-03-02T09:26:32;99879.34;;;8.90;100.00
76352;BME280;65179;47.786;19.138;2024-03-02T09:28:57;99873.13;;;8.90;100.00
76352;BME280;65179;47.786;19.138;2024-03-02T09:31:23;99870.81;;;8.93;100.00
76352;BME280;65179;47.786;19.138;2024-03-02T09:33:48;99860.41;;;8.90;100.00
76352;BME280;65179;47.786;19.138;2024-03-02T09:36:18;99863.87;;;8.97;100.00
76352;BME280;65179;47.786;19.138;2024-03-02T09:38:44;99861.56;;;9.01;100.00
76352;BME280;65179;47.786;19.138;2024-03-02T09:41:09;99856.53;;;9.04;100.00
76352;BME280;65179;47.786;19.138;2024-03-02T09:43:35;99861.28;;;9.09;100.00
76352;BME280;65179;47.786;19.138;2024-03-02T09:46:01;99853.09;;;9.15;100.00
76352;BME280;65179;47.786;19.138;2024-03-02T09:48:26;99857.78;;;9.27;100.00
76352;BME280;65179;47.786;19.138;2024-03-02T09:50:52;99851.00;;;9.36;100.00
76352;BME280;65179;47.786;19.138;2024-03-02T09:53:18;99851.91;;;9.48;100.00
76352;BME280;65179;47.786;19.138;2024-03-02T09:55:47;99849.72;;;9.56;100.00
76352;BME280;65179;47.786;19.138;2024-03-02T09:58:13;99850.09;;;9.60;100.00
76352;BME280;65179;47.786;19.138;2024-03-02T10:00:38;99850.69;;;9.62;100.00
76352;BME280;65179;47.786;19.138;2024-03-02T10:03:04;99840.00;;;9.67;100.00
76352;BME280;65179;47.786;19.138;2024-03-02T10:05:30;99842.13;;;9.65;100.00
76352;BME280;65179;47.786;19.138;2024-03-02T10:08:00;99851.28;;;9.64;100.00
76352;BME280;65179;47.786;19.138;2024-03-02T10:10:35;99852.12;;;9.64;100.00
76352;BME280;65179;47.786;19.138;2024-03-02T10:13:08;99844.91;;;9.58;100.00
76352;BME280;65179;47.786;19.138;2024-03-02T10:15:34;99848.44;;;9.59;100.00
76352;BME280;65179;47.786;19.138;2024-03-02T10:17:59;99848.06;;;9.55;100.00
76352;BME280;65179;47.786;19.138;2024-03-02T10:20:26;99841.00;;;9.54;100.00
76352;BME280;65179;47.786;19.138;2024-03-02T10:23:09;99852.50;;;9.50;100.00
76352;BME280;65179;47.786;19.138;2024-03-02T10:25:34;99845.41;;;9.49;100.00
76352;BME280;65179;47.786;19.138;2024-03-02T10:28:00;99850.84;;;9.49;100.00
76352;BME280;65179;47.786;19.138;2024-03-02T10:30:29;99851.91;;;9.48;100.00
76352;BME280;65179;47.786;19.138;2024-03-02T10:32:55;99841.97;;;9.42;100.00
76352;BME280;65179;47.786;19.138;2024-03-02T10:35:22;99842.41;;;9.39;100.00
76352;BME280;65179;47.786;19.138;2024-03-02T10:37:49;99846.41;;;9.36;100.00
76352;BME280;65179;47.786;19.138;2024-03-02T10:40:15;99844.53;;;9.37;100.00
76352;BME280;65179;47.786;19.138;2024-03-02T10:42:41;99849.50;;;9.40;100.00
76352;BME280;65179;47.786;19.138;2024-03-02T10:45:09;99842.84;;;9.36;100.00
76352;BME280;65179;47.786;19.138;2024-03-02T10:47:37;99840.16;;;9.36;100.00
76352;BME280;65179;47.786;19.138;2024-03-02T10:50:04;99839.94;;;9.37;100.00
76352;BME280;65179;47.786;19.138;2024-03-02T10:52:39;99828.28;;;9.37;100.00
76352;BME280;65179;47.786;19.138;2024-03-02T10:55:06;99839.09;;;9.37;100.00
76352;BME280;65179;47.786;19.138;2024-03-02T10:57:45;99838.28;;;9.36;100.00
76352;BME280;65179;47.786;19.138;2024-03-02T11:00:15;99832.03;;;9.36;100.00
76352;BME280;65179;47.786;19.138;2024-03-02T11:02:50;99836.03;;;9.33;100.00
76352;BME280;65179;47.786;19.138;2024-03-02T11:05:29;99832.50;;;9.33;100.00
76352;BME280;65179;47.786;19.138;2024-03-02T11:08:07;99830.00;;;9.31;100.00
76352;BME280;65179;47.786;19.138;2024-03-02T11:13:19;99831.88;;;9.31;100.00
76352;BME280;65179;47.786;19.138;2024-03-02T11:15:47;99830.00;;;9.31;100.00
76352;BME280;65179;47.786;19.138;2024-03-02T11:18:14;99838.34;;;9.30;100.00
76352;BME280;65179;47.786;19.138;2024-03-02T11:20:40;99834.81;;;9.29;100.00
76352;BME280;65179;47.786;19.138;2024-03-02T11:23:08;99825.63;;;9.30;100.00
76352;BME280;65179;47.786;19.138;2024-03-02T11:25:33;99830.63;;;9.33;100.00
76352;BME280;65179;47.786;19.138;2024-03-02T11:28:00;99829.53;;;9.34;100.00
76352;BME280;65179;47.786;19.138;2024-03-02T11:33:02;99824.97;;;9.35;100.00
76352;BME280;65179;47.786;19.138;2024-03-02T11:35:44;99827.06;;;9.33;100.00
76352;BME280;65179;47.786;19.138;2024-03-02T11:38:13;99823.53;;;9.32;100.00
76352;BME280;65179;47.786;19.138;2024-03-02T11:40:39;99829.78;;;9.33;100.00
76352;BME280;65179;47.786;19.138;2024-03-02T11:43:06;99819.06;;;9.38;100.00
76352;BME280;65179;47.786;19.138;2024-03-02T11:45:33;99823.22;;;9.40;100.00
76352;BME280;65179;47.786;19.138;2024-03-02T11:47:59;99818.19;;;9.44;100.00
76352;BME280;65179;47.786;19.138;2024-03-02T11:50:34;99823.13;;;9.47;100.00
76352;BME280;65179;47.786;19.138;2024-03-02T11:53:00;99815.59;;;9.49;100.00
76352;BME280;65179;47.786;19.138;2024-03-02T11:55:26;99816.19;;;9.51;100.00
76352;BME280;65179;47.786;19.138;2024-03-02T11:57:54;99815.31;;;9.57;100.00
76352;BME280;65179;47.786;19.138;2024-03-02T12:00:20;99814.84;;;9.60;100.00
76352;BME280;65179;47.786;19.138;2024-03-02T12:02:47;99816.28;;;9.62;100.00
76352;BME280;65179;47.786;19.138;2024-03-02T12:05:24;99817.47;;;9.66;100.00
76352;BME280;65179;47.786;19.138;2024-03-02T12:08:12;99814.31;;;9.69;100.00
76352;BME280;65179;47.786;19.138;2024-03-02T12:10:38;99807.03;;;9.70;100.00
76352;BME280;65179;47.786;19.138;2024-03-02T12:13:05;99806.19;;;9.69;100.00
76352;BME280;65179;47.786;19.138;2024-03-02T12:15:39;99807.03;;;9.70;100.00
76352;BME280;65179;47.786;19.138;2024-03-02T12:18:05;99808.16;;;9.62;100.00
76352;BME280;65179;47.786;19.138;2024-03-02T12:20:32;99810.03;;;9.62;100.00
76352;BME280;65179;47.786;19.138;2024-03-02T12:22:59;99805.06;;;9.59;100.00
76352;BME280;65179;47.786;19.138;2024-03-02T12:25:25;99808.81;;;9.58;100.00
76352;BME280;65179;47.786;19.138;2024-03-02T12:27:54;99805.53;;;9.56;100.00
76352;BME280;65179;47.786;19.138;2024-03-02T12:30:20;99813.06;;;9.54;100.00
76352;BME280;65179;47.786;19.138;2024-03-02T12:32:46;99818.03;;;9.57;100.00
76352;BME280;65179;47.786;19.138;2024-03-02T12:35:11;99805.75;;;9.54;100.00
76352;BME280;65179;47.786;19.138;2024-03-02T12:37:44;99803.87;;;9.55;100.00
76352;BME280;65179;47.786;19.138;2024-03-02T12:40:11;99810.94;;;9.56;100.00
76352;BME280;65179;47.786;19.138;2024-03-02T12:42:37;99810.34;;;9.54;100.00
76352;BME280;65179;47.786;19.138;2024-03-02T12:45:03;99803.28;;;9.53;100.00
76352;BME280;65179;47.786;19.138;2024-03-02T12:47:29;99811.84;;;9.50;100.00
76352;BME280;65179;47.786;19.138;2024-03-02T12:49:55;99809.97;;;9.50;100.00
76352;BME280;65179;47.786;19.138;2024-03-02T12:52:21;99811.84;;;9.50;100.00
76352;BME280;65179;47.786;19.138;2024-03-02T12:54:47;99811.84;;;9.50;100.00
76352;BME280;65179;47.786;19.138;2024-03-02T12:57:17;99814.81;;;9.48;100.00